Time;durP1;ratioP1;P1;durP2;ratioP2;P2;SDS_P1;SDS_P2;PMS_P1;PMS_P2;Temp;Humidity;BMP_temperature;BMP_pressure;BME280_temperature;BME280_humidity;BME280_pressure;Samples;Min_cycle;Max_cycle;Signal;HPM_P1;HPM_P2
2022/05/20 00:01:55;;;;;;;5.03;2.37;;;;;;;22.52;40.47;101655.81;1726053;82;21144;-76
2022/05/20 00:04:22;;;;;;;2.55;1.80;;;;;;;22.51;40.47;101656.38;1712712;82;21077;-77
2022/05/20 00:06:48;;;;;;;3.47;2.02;;;;;;;22.51;40.47;101659.14;1709653;83;21053;-76
2022/05/20 00:09:14;;;;;;;3.87;2.08;;;;;;;22.51;40.48;101654.98;1732571;82;21050;-77
2022/05/20 00:11:40;;;;;;;3.37;2.15;;;;;;;22.51;40.47;101652.21;1708303;83;21053;-76
2022/05/20 00:14:07;;;;;;;3.47;2.15;;;;;;;22.51;40.47;101652.21;1724136;82;21869;-76
2022/05/20 00:16:35;;;;;;;3.30;2.10;;;;;;;22.52;40.47;101655.25;1712463;82;21030;-76
2022/05/20 00:19:05;;;;;;;3.20;1.72;;;;;;;22.51;40.47;101646.66;1725818;82;21049;-76
2022/05/20 00:21:32;;;;;;;3.60;1.92;;;;;;;22.51;40.46;101645.84;1726746;82;21045;-76
2022/05/20 00:24:04;;;;;;;3.52;2.10;;;;;;;22.51;40.44;101650.83;1708436;83;21111;-76
2022/05/20 00:26:30;;;;;;;3.20;2.30;;;;;;;22.51;40.42;101651.39;1726557;82;22097;-77
2022/05/20 00:28:56;;;;;;;3.62;2.10;;;;;;;22.50;40.42;101650.56;1731129;82;21053;-77
2022/05/20 00:31:24;;;;;;;3.22;2.10;;;;;;;22.51;40.41;101647.22;1731724;82;21063;-76
2022/05/20 00:33:51;;;;;;;3.08;1.87;;;;;;;22.51;40.41;101646.66;1731738;82;21061;-76
2022/05/20 00:36:17;;;;;;;4.10;1.82;;;;;;;22.50;40.41;101650.56;1725926;82;21009;-76
2022/05/20 00:38:43;;;;;;;3.17;1.98;;;;;;;22.51;40.41;101652.77;1728310;82;21212;-77
2022/05/20 00:41:09;;;;;;;3.15;2.20;;;;;;;22.50;40.42;101656.67;1708462;83;20859;-77
2022/05/20 00:43:42;;;;;;;3.33;2.00;;;;;;;22.50;40.41;101658.05;1723901;82;21073;-76
2022/05/20 00:46:24;;;;;;;3.47;1.82;;;;;;;22.49;40.39;101655.84;1729817;82;21026;-76
2022/05/20 00:49:01;;;;;;;3.67;1.95;;;;;;;22.48;40.40;101658.38;1731278;82;21046;-77
2022/05/20 00:51:32;;;;;;;3.10;1.95;;;;;;;22.49;40.38;101661.39;1726202;82;21122;-77
2022/05/20 00:54:06;;;;;;;3.55;1.87;;;;;;;22.49;40.38;101661.98;1721811;82;21097;-77
2022/05/20 00:56:43;;;;;;;2.33;1.92;;;;;;;22.48;40.37;101660.34;1734452;82;21053;-77
2022/05/20 00:59:12;;;;;;;4.70;2.00;;;;;;;22.49;40.39;101663.38;1731095;82;21051;-77
2022/05/20 01:01:38;;;;;;;4.53;1.77;;;;;;;22.48;40.34;101658.38;1731416;82;21081;-77
2022/05/20 01:04:05;;;;;;;2.85;1.90;;;;;;;22.47;40.35;101651.19;1731549;82;21071;-77
2022/05/20 01:06:32;;;;;;;3.02;1.80;;;;;;;22.48;40.37;101649.24;1729911;82;21133;-77
2022/05/20 01:08:58;;;;;;;2.65;1.77;;;;;;;22.47;40.35;101649.80;1723169;82;21275;-77
2022/05/20 01:11:25;;;;;;;3.15;1.80;;;;;;;22.47;40.34;101647.03;1712971;83;20898;-77
2022/05/20 01:13:51;;;;;;;3.10;2.02;;;;;;;22.48;40.36;101652.84;1713844;82;21047;-77
2022/05/20 01:16:17;;;;;;;3.27;1.85;;;;;;;22.48;40.36;101647.30;1710199;83;21162;-77
2022/05/20 01:18:45;;;;;;;2.67;1.65;;;;;;;22.48;40.37;101650.06;1710725;83;21405;-77
2022/05/20 01:21:11;;;;;;;3.33;1.80;;;;;;;22.49;40.35;101652.28;1710493;83;21115;-77
2022/05/20 01:23:38;;;;;;;3.45;1.72;;;;;;;22.48;40.37;101657.56;1691066;83;21070;-77
2022/05/20 01:26:04;;;;;;;3.27;1.92;;;;;;;22.48;40.37;101652.02;1710883;83;21051;-78
2022/05/20 01:28:31;;;;;;;3.15;2.00;;;;;;;22.47;40.37;101653.96;1710577;83;21078;-77
2022/05/20 01:31:03;;;;;;;3.02;1.82;;;;;;;22.48;40.37;101653.41;1710436;83;21051;-77
2022/05/20 01:33:33;;;;;;;3.33;1.80;;;;;;;22.48;40.37;101653.41;1711076;82;21066;-77
2022/05/20 01:36:01;;;;;;;2.30;1.72;;;;;;;22.46;40.37;101645.38;1683038;84;21086;-77
2022/05/20 01:38:28;;;;;;;2.77;1.80;;;;;;;22.47;40.37;101641.48;1701186;84;21126;-76
2022/05/20 01:41:02;;;;;;;3.52;2.02;;;;;;;22.46;40.37;101641.22;1718137;83;21408;-77
2022/05/20 01:43:57;;;;;;;2.75;1.80;;;;;;;22.46;40.37;101644.55;1717038;83;21567;-77
2022/05/20 01:46:40;;;;;;;2.62;1.75;;;;;;;22.47;40.36;101640.66;1718642;83;21522;-77
2022/05/20 01:49:45;;;;;;;2.47;1.82;;;;;;;22.46;40.32;101636.23;1718217;83;22199;-77
2022/05/20 01:52:38;;;;;;;2.72;2.00;;;;;;;22.46;40.30;101639.01;1707015;83;21612;-77
2022/05/20 01:55:12;;;;;;;3.70;1.80;;;;;;;22.45;40.32;101640.96;1696844;84;21112;-77
2022/05/20 01:57:53;;;;;;;3.00;1.82;;;;;;;22.43;40.31;101634.92;1697172;84;21079;-77
2022/05/20 02:00:25;;;;;;;2.27;1.65;;;;;;;22.43;40.31;101639.08;1696849;83;21035;-77
2022/05/20 02:03:12;;;;;;;4.58;2.08;;;;;;;22.42;40.32;101645.75;1696894;84;21332;-77
2022/05/20 02:06:06;;;;;;;3.40;1.82;;;;;;;22.43;40.32;101649.34;1696855;84;21689;-77
2022/05/20 02:08:49;;;;;;;3.47;1.67;;;;;;;22.42;40.32;101647.13;1702111;82;21177;-77
2022/05/20 02:11:29;;;;;;;3.60;1.98;;;;;;;22.42;40.32;101647.13;1731387;82;21029;-77
2022/05/20 02:14:07;;;;;;;2.62;1.98;;;;;;;22.41;40.32;101645.48;1700218;82;21015;-77
2022/05/20 02:16:44;;;;;;;3.00;1.70;;;;;;;22.41;40.32;101648.81;1711293;83;21062;-77
2022/05/20 02:19:28;;;;;;;3.30;1.87;;;;;;;22.40;40.32;101642.48;1681601;83;21146;-76
2022/05/20 02:21:57;;;;;;;2.17;1.42;;;;;;;22.40;40.33;101647.20;1669203;84;21534;-77
2022/05/20 02:24:25;;;;;;;2.12;1.57;;;;;;;22.40;40.32;101643.87;1688248;83;21611;-76
2022/05/20 02:26:56;;;;;;;2.20;1.55;;;;;;;22.40;40.33;101649.41;1688169;84;21533;-77
2022/05/20 02:29:26;;;;;;;;;;;;;;;22.40;40.34;101642.48;1689843;84;21136;-76
2022/05/20 02:32:15;;;;;;;2.75;1.77;;;;;;;22.40;40.32;101643.04;1744750;80;20205;-77
2022/05/20 02:34:41;;;;;;;2.42;1.90;;;;;;;22.39;40.35;101646.38;1714480;81;21180;-76
2022/05/20 02:37:32;;;;;;;2.45;1.80;;;;;;;22.39;40.35;101651.09;1739249;82;21099;-77
2022/05/20 02:39:58;;;;;;;2.77;1.77;;;;;;;22.38;40.35;101653.61;1738442;81;21027;-77
2022/05/20 02:42:27;;;;;;;4.03;1.82;;;;;;;22.37;40.34;101655.55;1739119;81;21037;-77
2022/05/20 02:44:53;;;;;;;3.65;2.00;;;;;;;22.39;40.35;101666.34;1738940;81;21044;-77
2022/05/20 02:47:20;;;;;;;3.55;1.62;;;;;;;22.38;40.35;101666.91;1739032;81;21087;-77
2022/05/20 02:49:46;;;;;;;2.80;1.62;;;;;;;22.39;40.35;101667.73;1714507;82;21617;-77
2022/05/20 02:52:12;;;;;;;3.00;1.80;;;;;;;22.38;40.35;101665.52;1740478;81;21351;-77
2022/05/20 02:54:38;;;;;;;2.70;1.98;;;;;;;22.39;40.35;101670.50;1715264;83;21144;-77
2022/05/20 02:57:05;;;;;;;4.58;2.00;;;;;;;22.40;40.35;101677.14;1723621;83;21078;-77
2022/05/20 03:05:07;;;;;;;2.37;1.72;;;;;;;22.39;40.34;101675.48;1723267;83;21603;-77
2022/05/20 03:07:33;;;;;;;4.15;1.80;;;;;;;22.39;40.35;101669.94;1724454;83;21085;-77
2022/05/20 03:10:00;;;;;;;2.98;1.92;;;;;;;22.39;40.32;101656.64;1721540;82;21818;-77
2022/05/20 03:12:27;;;;;;;2.95;1.92;;;;;;;22.39;40.35;101661.63;1728323;83;21222;-77
2022/05/20 03:14:54;;;;;;;2.27;1.57;;;;;;;22.38;40.34;101654.43;1727836;82;21419;-77
2022/05/20 03:17:20;;;;;;;4.90;2.85;;;;;;;22.39;40.35;101659.41;1728210;82;21023;-77
2022/05/20 03:19:46;;;;;;;2.90;1.90;;;;;;;22.39;40.37;101664.40;1721014;83;20970;-77
2022/05/20 03:22:12;;;;;;;1.87;1.60;;;;;;;22.38;40.38;101665.52;1727959;83;21097;-77
2022/05/20 03:24:39;;;;;;;2.95;1.85;;;;;;;22.39;40.38;101664.40;1728024;82;21237;-77
2022/05/20 03:27:05;;;;;;;2.72;1.80;;;;;;;22.38;40.37;101659.98;1728319;83;21085;-76
2022/05/20 03:29:42;;;;;;;2.47;1.52;;;;;;;22.39;40.37;101667.73;1727929;83;21607;-77
2022/05/20 03:32:08;;;;;;;2.22;1.57;;;;;;;22.39;40.37;101667.17;1727496;81;21069;-77
2022/05/20 03:34:35;;;;;;;2.45;1.57;;;;;;;22.39;40.38;101666.34;1696812;83;21039;-77
2022/05/20 03:37:01;;;;;;;3.10;1.70;;;;;;;22.39;40.40;101667.17;1697336;83;21682;-78
2022/05/20 03:39:27;;;;;;;3.02;1.80;;;;;;;22.38;40.35;101665.52;1697360;83;21061;-78
2022/05/20 03:41:55;;;;;;;3.22;2.08;;;;;;;22.39;40.37;101667.17;1727762;83;21083;-78
2022/05/20 03:44:28;;;;;;;2.70;1.65;;;;;;;22.39;40.37;101662.19;1728062;82;21375;-78
2022/05/20 03:46:55;;;;;;;3.00;1.80;;;;;;;22.40;40.39;101666.61;1728182;83;21572;-78
2022/05/20 03:49:24;;;;;;;2.52;1.60;;;;;;;22.39;40.38;101657.47;1727798;82;21125;-78
2022/05/20 03:51:51;;;;;;;2.47;1.92;;;;;;;22.39;40.38;101667.17;1728098;82;21129;-78
2022/05/20 03:54:20;;;;;;;2.37;1.60;;;;;;;22.40;40.40;101673.54;1725875;83;21024;-77
2022/05/20 03:56:47;;;;;;;2.92;1.87;;;;;;;22.40;40.40;101669.38;1722788;83;21054;-77
2022/05/20 03:59:13;;;;;;;3.22;1.92;;;;;;;22.40;40.39;101670.77;1732896;82;21080;-77
2022/05/20 04:01:56;;;;;;;2.80;1.90;;;;;;;22.39;40.42;101674.10;1725845;83;21773;-77
2022/05/20 04:04:31;;;;;;;3.85;1.95;;;;;;;22.39;40.42;101683.80;1725810;82;21070;-78
2022/05/20 04:07:05;;;;;;;7.17;2.40;;;;;;;22.38;40.38;101682.16;1725532;83;21088;-77
2022/05/20 04:09:31;;;;;;;3.95;2.35;;;;;;;22.32;40.35;101686.15;1724430;82;21005;-78
2022/05/20 04:11:59;;;;;;;3.52;2.00;;;;;;;22.26;40.35;101681.85;1731718;82;21041;-77
2022/05/20 04:14:27;;;;;;;4.12;2.22;;;;;;;22.26;40.38;101681.85;1740957;82;22159;-78
2022/05/20 04:17:00;;;;;;;9.38;2.37;;;;;;;22.23;40.39;101689.41;1746462;81;20986;-78
2022/05/20 04:19:30;;;;;;;4.85;2.30;;;;;;;22.21;40.34;101694.42;1760328;81;21044;-77
2022/05/20 04:22:04;;;;;;;7.03;2.50;;;;;;;22.17;40.38;101698.94;1739553;82;21029;-78
2022/05/20 04:24:30;;;;;;;6.25;2.45;;;;;;;22.16;40.42;101698.11;1724063;82;21084;-78
2022/05/20 04:27:02;;;;;;;3.20;1.90;;;;;;;22.18;40.37;101703.36;1702931;82;21276;-78
2022/05/20 04:29:29;;;;;;;7.95;2.60;;;;;;;22.15;40.37;101699.23;1704962;83;21022;-79
2022/05/20 04:31:56;;;;;;;7.80;2.52;;;;;;;22.15;40.32;101701.21;1710281;82;21034;-77
2022/05/20 04:34:22;;;;;;;11.10;2.75;;;;;;;22.11;40.29;101699.59;1731631;80;21107;-78
2022/05/20 04:36:49;;;;;;;5.03;2.50;;;;;;;22.09;40.34;101701.03;1726839;81;21050;-76
2022/05/20 04:39:15;;;;;;;8.98;2.67;;;;;;;22.09;40.37;101694.94;1737289;81;21281;-80
2022/05/20 04:47:20;;;;;;;6.50;2.65;;;;;;;22.01;40.33;101712.83;1769047;80;21084;-78
2022/05/20 04:49:47;;;;;;;11.57;3.05;;;;;;;21.97;40.43;101702.10;1749880;80;21046;-78
2022/05/20 04:52:13;;;;;;;13.20;3.15;;;;;;;21.95;40.49;101698.23;1716307;80;21134;-86
2022/05/20 04:54:52;;;;;;;9.73;3.02;;;;;;;21.95;40.54;101698.80;1715550;82;21069;-78
2022/05/20 04:57:26;;;;;;;14.33;3.33;;;;;;;21.94;40.61;101701.34;1742587;81;21083;-82
2022/05/20 05:00:05;;;;;;;10.88;3.17;;;;;;;21.91;40.60;101711.59;1766846;79;21055;-77
2022/05/20 05:02:33;;;;;;;12.03;3.17;;;;;;;21.88;40.71;101713.03;1762890;79;21029;-77
2022/05/20 05:04:59;;;;;;;9.30;3.15;;;;;;;21.84;40.79;101706.45;1763463;79;22122;-78
2022/05/20 05:07:27;;;;;;;17.45;3.90;;;;;;;21.84;40.83;101709.23;1769824;79;21122;-80
2022/05/20 05:09:53;;;;;;;13.88;3.50;;;;;;;21.83;40.88;101714.50;1749490;79;21041;-77
2022/05/20 05:12:23;;;;;;;23.90;4.08;;;;;;;21.82;40.87;101714.23;1698926;82;21071;-80
2022/05/20 05:14:51;;;;;;;34.63;5.28;;;;;;;21.82;40.89;101716.45;1742368;80;21095;-82
2022/05/20 05:18:09;;;;;;;14.45;3.55;;;;;;;21.83;40.84;101716.71;1743789;80;21647;-78
2022/05/20 05:19:49;;;;;;;27.82;3.77;;;;;;;21.86;40.81;101713.88;1702540;82;21178;-83
2022/05/20 05:22:15;;;;;;;13.08;4.08;;;;;;;21.87;40.75;101717.75;1766522;79;21049;-85
2022/05/20 05:24:42;;;;;;;10.35;3.42;;;;;;;21.90;40.75;101719.66;1772089;78;21094;-78
2022/05/20 05:27:08;;;;;;;16.80;3.65;;;;;;;21.89;40.73;101716.06;1759408;79;21106;-80
2022/05/20 05:29:35;;;;;;;9.28;3.60;;;;;;;21.91;40.71;101720.72;1770561;79;21107;-78
2022/05/20 05:32:02;;;;;;;9.63;3.62;;;;;;;21.92;40.70;101721.55;1775421;79;21055;-79
2022/05/20 05:34:28;;;;;;;13.20;4.70;;;;;;;21.92;40.71;101721.02;1753395;80;21094;-77
2022/05/20 05:36:55;;;;;;;9.63;4.03;;;;;;;21.93;40.75;101717.69;1753885;81;21660;-78
2022/05/20 05:39:21;;;;;;;11.12;3.92;;;;;;;21.93;40.77;101714.36;1774658;79;21057;-79
2022/05/20 05:41:48;;;;;;;18.62;4.55;;;;;;;21.94;40.86;101719.34;1750863;80;21399;-78
2022/05/20 05:44:14;;;;;;;11.33;3.90;;;;;;;21.95;40.87;101723.73;1771859;79;21102;-76
2022/05/20 05:46:43;;;;;;;14.75;4.20;;;;;;;21.93;40.85;101720.46;1755593;80;21080;-79
2022/05/20 05:49:10;;;;;;;15.93;3.95;;;;;;;21.91;40.90;101725.44;1721107;79;21094;-84
2022/05/20 05:51:36;;;;;;;14.78;4.17;;;;;;;21.91;41.00;101713.80;1762390;79;21080;-82
2022/05/20 05:54:03;;;;;;;20.95;4.53;;;;;;;21.93;41.12;101720.46;1760349;80;21348;-80
2022/05/20 05:56:31;;;;;;;15.75;3.85;;;;;;;21.92;41.18;101719.64;1771564;80;21068;-87
2022/05/20 05:58:57;;;;;;;19.75;4.45;;;;;;;21.97;41.42;101718.72;1745408;80;21055;-80
2022/05/20 06:01:29;;;;;;;13.90;3.80;;;;;;;21.99;41.51;101716.45;1764440;80;21512;-78
2022/05/20 06:03:56;;;;;;;22.15;4.28;;;;;;;21.99;41.63;101722.00;1764083;79;21047;-78
2022/05/20 06:06:22;;;;;;;28.52;4.30;;;;;;;22.01;41.73;101724.73;1762063;80;21950;-78
2022/05/20 06:08:48;;;;;;;14.35;4.15;;;;;;;22.00;41.81;101716.16;1764097;80;21039;-78
2022/05/20 06:11:15;;;;;;;20.27;4.30;;;;;;;22.02;41.88;101715.31;1732467;80;21382;-80
2022/05/20 06:13:41;;;;;;;21.15;4.03;;;;;;;22.05;41.93;101719.41;1741804;80;21096;-79
2022/05/20 06:16:08;;;;;;;15.63;4.37;;;;;;;22.08;41.97;101716.02;1721796;82;21190;-77
2022/05/20 06:18:36;;;;;;;17.32;4.47;;;;;;;22.11;42.15;101715.39;1743782;80;21845;-78
2022/05/20 06:21:08;;;;;;;13.43;4.03;;;;;;;22.13;42.20;101713.98;1732146;80;21056;-84
2022/05/20 06:23:35;;;;;;;12.13;5.30;;;;;;;22.15;42.16;101710.91;1732753;81;21450;-85
2022/05/20 06:26:01;;;;;;;9.68;3.62;;;;;;;22.17;42.17;101709.46;1734396;81;21089;-79
2022/05/20 06:28:30;;;;;;;16.87;4.53;;;;;;;22.19;42.11;101707.78;1732541;81;21073;-83
2022/05/20 06:31:29;;;;;;;15.78;4.42;;;;;;;22.19;42.10;101710.55;1739390;80;21800;-77
2022/05/20 06:33:52;;;;;;;17.87;4.22;;;;;;;22.19;42.01;101706.39;1731521;80;21136;-82
2022/05/20 06:42:05;;;;;;;17.52;4.03;;;;;;;22.19;42.03;101714.71;1756898;79;21044;-79
2022/05/20 06:44:32;;;;;;;15.60;4.62;;;;;;;22.20;42.10;101721.87;1755262;80;21058;-74
2022/05/20 06:46:58;;;;;;;10.85;3.55;;;;;;;22.20;42.13;101713.00;1756136;81;21088;-78
2022/05/20 06:49:24;;;;;;;19.95;4.55;;;;;;;22.22;42.17;101717.69;1760461;81;21114;-76
2022/05/20 06:51:54;;;;;;;17.57;5.40;;;;;;;22.23;42.30;101708.81;1763335;79;21469;-84
2022/05/20 06:54:20;;;;;;;19.02;5.67;;;;;;;22.24;42.48;101711.81;1752935;81;21076;-85
2022/05/20 06:56:49;;;;;;;29.02;5.85;;;;;;;;;;1729186;81;21275;-86
2022/05/20 06:59:17;;;;;;;43.80;7.62;;;;;;;22.30;42.89;101715.59;1717587;82;21045;-83
2022/05/20 07:01:45;;;;;;;36.00;6.97;;;;;;;22.32;43.12;101711.09;1702251;82;21042;-83
2022/05/20 07:04:12;;;;;;;30.55;6.17;;;;;;;22.33;43.25;101710.80;1728203;82;21650;-80
2022/05/20 07:06:40;;;;;;;18.40;5.25;;;;;;;22.35;43.29;101712.45;1734786;81;21104;-83
2022/05/20 07:09:07;;;;;;;13.05;4.75;;;;;;;22.36;43.26;101721.03;1733764;82;21129;-86
2022/05/20 07:11:33;;;;;;;26.70;7.47;;;;;;;22.36;43.22;101719.65;1734030;82;21064;-82
2022/05/20 07:13:59;;;;;;;21.73;7.22;;;;;;;22.37;43.24;101720.70;1741345;82;21022;-81
2022/05/20 07:16:31;;;;;;;28.90;10.30;;;;;;;22.38;43.28;101722.36;1742125;82;21085;-77
2022/05/20 07:18:58;;;;;;;21.02;7.58;;;;;;;22.38;43.30;101720.97;1743340;81;21103;-79
2022/05/20 07:21:25;;;;;;;18.55;5.78;;;;;;;22.40;43.33;101720.67;1745069;80;21477;-81
2022/05/20 07:23:51;;;;;;;18.80;8.23;;;;;;;22.40;43.31;101720.11;1742181;81;21047;-82
2022/05/20 07:26:18;;;;;;;22.73;8.25;;;;;;;22.39;43.35;101722.63;1741851;82;21977;-82
2022/05/20 07:28:44;;;;;;;19.40;7.53;;;;;;;22.39;43.41;101724.01;1743758;81;21010;-78
2022/05/20 07:31:11;;;;;;;21.30;8.45;;;;;;;22.40;43.50;101726.22;1742464;80;21163;-77
2022/05/20 07:33:37;;;;;;;23.15;7.92;;;;;;;22.40;43.51;101724.27;1744406;82;21142;-82
2022/05/20 07:36:06;;;;;;;33.85;11.78;;;;;;;22.42;43.47;101723.95;1725270;81;21099;-78
2022/05/20 07:38:45;;;;;;;27.27;10.82;;;;;;;22.43;43.63;101725.59;1742847;82;21993;-81
2022/05/20 07:41:12;;;;;;;26.85;10.35;;;;;;;22.44;43.94;101724.48;1743849;81;21067;-85
2022/05/20 07:43:39;;;;;;;31.75;10.18;;;;;;;22.45;44.05;101726.13;1742108;82;21058;-84
2022/05/20 07:46:05;;;;;;;20.55;8.23;;;;;;;22.46;44.08;101726.36;1742284;82;21227;-81
2022/05/20 07:48:33;;;;;;;22.22;7.83;;;;;;;22.43;43.95;101727.81;1739250;81;21084;-83
2022/05/20 07:51:10;;;;;;;30.65;8.10;;;;;;;22.43;44.03;101720.88;1743860;80;21031;-83
2022/05/20 07:53:40;;;;;;;21.40;5.40;;;;;;;22.45;44.02;101728.90;1744847;80;21072;-80
2022/05/20 07:56:14;;;;;;;29.95;8.15;;;;;;;22.44;43.88;101726.69;1744991;80;21108;-81
2022/05/20 07:58:48;;;;;;;20.75;5.35;;;;;;;22.43;43.86;101723.65;1739549;82;22027;-82
2022/05/20 08:01:17;;;;;;;25.92;5.72;;;;;;;22.43;43.76;101718.66;1738514;80;21195;-85
2022/05/20 08:06:29;;;;;;;38.83;5.60;;;;;;;22.45;43.60;101721.97;1739707;81;21091;-83
2022/05/20 08:08:56;;;;;;;22.98;4.70;;;;;;;22.46;43.32;101723.59;1738471;81;21766;-77
2022/05/20 08:11:23;;;;;;;14.55;4.20;;;;;;;22.47;43.21;101718.30;1733646;80;21643;-84
2022/05/20 08:13:52;;;;;;;28.45;4.60;;;;;;;22.49;43.26;101720.22;1741540;80;21049;-77
2022/05/20 08:16:20;;;;;;;16.90;4.67;;;;;;;22.48;43.16;101716.62;1743069;80;21056;-79
2022/05/20 08:18:47;;;;;;;14.85;4.47;;;;;;;22.49;43.13;101714.08;1727660;80;21100;-82
2022/05/20 08:21:13;;;;;;;11.10;4.92;;;;;;;22.50;43.10;101715.73;1719675;81;21080;-85
2022/05/20 08:23:40;;;;;;;22.32;6.42;;;;;;;22.50;43.04;101719.06;1742233;81;21640;-80
2022/05/20 08:26:17;;;;;;;18.32;6.10;;;;;;;22.51;42.95;101717.38;1731466;81;21087;-84
2022/05/20 08:28:41;;;;;;;13.68;8.15;;;;;;;22.52;42.94;101711.27;1732635;80;21409;-82
2022/05/20 08:31:15;;;;;;;23.65;12.23;;;;;;;22.53;42.96;101707.38;1735391;80;21105;-82
2022/05/20 08:33:42;;;;;;;22.07;12.58;;;;;;;22.53;42.97;101708.17;1733688;82;21088;-79
2022/05/20 08:36:08;;;;;;;23.62;10.05;;;;;;;22.54;43.02;101711.20;1732737;80;21153;-84
2022/05/20 08:38:35;;;;;;;25.40;10.00;;;;;;;22.52;43.07;101705.16;1715632;81;38094;-81
2022/05/20 08:41:08;;;;;;;23.75;11.68;;;;;;;22.55;43.07;101703.71;1734749;80;21088;-85
2022/05/20 08:43:34;;;;;;;22.65;11.65;;;;;;;22.55;43.06;101694.83;1756644;80;21010;-77
2022/05/20 08:46:01;;;;;;;28.05;8.55;;;;;;;22.56;43.00;101694.27;1736015;80;21064;-80
2022/05/20 08:48:28;;;;;;;32.85;11.73;;;;;;;22.58;43.00;101691.43;1733049;81;21355;-77
2022/05/20 08:50:55;;;;;;;22.42;8.00;;;;;;;22.59;43.23;101681.16;1710785;82;21111;-76
2022/05/20 08:53:36;;;;;;;11.95;3.40;;;;;;;22.62;43.32;101681.36;1729206;80;21298;-78
2022/05/20 08:56:06;;;;;;;13.58;3.10;;;;;;;22.65;43.09;101679.94;1733532;82;20988;-76
2022/05/20 08:58:32;;;;;;;14.40;3.43;;;;;;;22.67;42.92;101679.86;1711513;82;22420;-77
2022/05/20 09:00:59;;;;;;;11.57;3.58;;;;;;;22.71;42.75;101671.20;1734647;80;21578;-77
2022/05/20 09:03:26;;;;;;;8.60;2.47;;;;;;;22.72;42.76;101677.58;1732526;81;21062;-76
2022/05/20 09:06:15;;;;;;;14.30;2.40;;;;;;;22.72;42.79;101673.42;1728974;81;21029;-76
2022/05/20 09:08:41;;;;;;;11.00;3.83;;;;;;;22.73;42.83;101671.73;1730987;81;21562;-75
2022/05/20 09:11:14;;;;;;;11.08;2.55;;;;;;;22.74;42.85;101672.55;1710173;82;21730;-75
2022/05/20 09:16:31;;;;;;;17.60;5.45;;;;;;;22.78;42.85;101669.97;1621882;85;21100;-75
2022/05/20 09:19:13;;;;;;;11.35;3.98;;;;;;;22.78;42.75;101667.20;1657774;85;21635;-76
2022/05/20 09:21:42;;;;;;;8.55;3.70;;;;;;;22.76;42.74;101663.34;1682314;82;21035;-76
2022/05/20 09:24:21;;;;;;;14.90;4.30;;;;;;;22.76;42.64;101661.39;1713529;82;21001;-76
2022/05/20 09:27:03;;;;;;;12.95;3.95;;;;;;;22.76;42.53;101660.00;1713840;82;21974;-76
2022/05/20 09:29:35;;;;;;;8.50;4.12;;;;;;;22.76;42.49;101661.39;1701907;82;21041;-76
2022/05/20 09:32:03;;;;;;;7.28;3.33;;;;;;;22.76;42.37;101658.61;1707781;82;21083;-77
2022/05/20 09:34:39;;;;;;;9.35;3.58;;;;;;;22.76;42.21;101652.24;1701960;82;21427;-76
2022/05/20 09:37:17;;;;;;;9.25;3.98;;;;;;;22.76;42.13;101661.95;1700548;82;20893;-79
2022/05/20 09:39:48;;;;;;;10.48;3.58;;;;;;;22.75;42.01;101654.75;1703308;83;21123;-76
2022/05/20 09:42:21;;;;;;;11.08;3.58;;;;;;;22.75;41.79;101659.73;1702041;83;21015;-76
2022/05/20 09:44:54;;;;;;;13.15;3.40;;;;;;;22.75;41.44;101656.14;1702169;83;21008;-76
2022/05/20 09:47:32;;;;;;;7.03;3.33;;;;;;;22.74;41.08;101652.55;1678839;84;21047;-74
2022/05/20 09:50:28;;;;;;;13.78;4.03;;;;;;;22.75;40.89;101656.97;1698171;82;21001;-76
2022/05/20 09:53:19;;;;;;;13.13;4.28;;;;;;;22.76;40.87;101646.69;1695041;82;21455;-79
2022/05/20 09:55:46;;;;;;;17.75;3.92;;;;;;;22.74;41.22;101641.45;1700856;82;20968;-80
2022/05/20 09:58:27;;;;;;;13.75;3.85;;;;;;;22.74;41.50;101649.77;1707423;82;20969;-78
2022/05/20 10:00:59;;;;;;;16.13;3.53;;;;;;;22.75;41.62;101644.48;1715126;82;20952;-79
2022/05/20 10:03:38;;;;;;;16.23;3.67;;;;;;;22.78;41.91;101640.84;1707701;82;21043;-78
2022/05/20 10:06:15;;;;;;;16.67;3.40;;;;;;;22.80;42.07;101633.02;1717251;82;21292;-79
2022/05/20 10:09:18;;;;;;;12.50;3.10;;;;;;;22.82;42.17;101625.21;1704347;82;21742;-76
2022/05/20 10:12:22;;;;;;;16.12;3.42;;;;;;;22.82;42.09;101623.83;1731375;81;21595;-77
2022/05/20 10:15:07;;;;;;;17.50;3.65;;;;;;;22.82;42.11;101621.88;1728686;82;21085;-76
2022/05/20 10:17:42;;;;;;;9.80;3.40;;;;;;;22.82;42.07;101611.34;1756306;80;21085;-77
2022/05/20 10:20:34;;;;;;;8.38;2.92;;;;;;;22.81;41.84;101612.47;1759420;80;22231;-77
2022/05/20 10:23:17;;;;;;;6.65;2.62;;;;;;;22.80;41.66;101606.09;1745062;80;21039;-77
2022/05/20 10:25:57;;;;;;;9.00;3.70;;;;;;;22.81;41.42;101600.80;1724892;81;21089;-79
2022/05/20 10:34:34;;;;;;;7.10;3.30;;;;;;;22.84;40.59;101584.91;1731313;81;21162;-77
2022/05/20 10:37:12;;;;;;;5.45;2.85;;;;;;;22.86;40.48;101574.89;1731878;80;21080;-76
2022/05/20 10:39:56;;;;;;;8.05;2.35;;;;;;;22.87;40.26;101573.77;1737610;79;21173;-76
2022/05/20 10:42:50;;;;;;;7.30;2.70;;;;;;;22.88;40.02;101560.13;1714198;82;21953;-78
2022/05/20 10:49:01;;;;;;;6.45;2.05;;;;;;;22.91;39.82;101564.50;1748994;79;21008;-76
2022/05/20 10:51:38;;;;;;;8.00;2.50;;;;;;;22.92;39.73;101563.91;1737331;80;21142;-76
2022/05/20 10:54:33;;;;;;;9.03;2.33;;;;;;;22.92;39.90;101552.81;1742243;80;21052;-77
2022/05/20 10:57:08;;;;;;;12.30;2.27;;;;;;;22.96;40.65;101556.02;1764148;80;21266;-77
2022/05/20 10:59:54;;;;;;;13.32;2.58;;;;;;;23.00;41.02;101552.87;1749148;80;21166;-76
2022/05/20 11:03:07;;;;;;;11.65;2.33;;;;;;;23.03;40.95;101550.05;1732440;81;22396;-76
2022/05/20 11:06:23;;;;;;;15.25;2.65;;;;;;;23.05;41.16;101543.59;1732347;80;21536;-77
2022/05/20 11:09:26;;;;;;;7.20;1.65;;;;;;;23.08;41.43;101544.38;1727603;81;21084;-80
2022/05/20 11:11:57;;;;;;;9.90;1.70;;;;;;;23.10;41.02;101534.58;1743509;80;21079;-79
2022/05/20 11:14:49;;;;;;;7.10;1.80;;;;;;;23.11;40.65;101533.45;1743723;80;21083;-78
2022/05/20 11:17:42;;;;;;;7.22;1.77;;;;;;;23.11;40.61;101529.85;1771780;79;21708;-78
2022/05/20 11:20:28;;;;;;;3.65;2.20;;;;;;;23.12;40.29;101528.72;1766118;79;21110;-78
2022/05/20 11:23:29;;;;;;;7.78;1.95;;;;;;;23.14;40.17;101521.70;1766221;79;21173;-79
2022/05/20 11:26:17;;;;;;;4.75;2.20;;;;;;;23.14;39.92;101519.50;1763540;79;21108;-78
2022/05/20 11:29:23;;;;;;;7.25;2.30;;;;;;;23.12;39.55;101517.05;1774844;79;21032;-80
2022/05/20 11:31:58;;;;;;;3.25;2.27;;;;;;;23.11;39.36;101518.19;1768765;79;21306;-83
2022/05/20 11:34:53;;;;;;;6.10;1.98;;;;;;;23.10;39.46;101514.33;1762792;79;21055;-82
2022/05/20 11:37:34;;;;;;;72.20;5.85;;;;;;;23.09;39.38;101513.50;1779589;78;21150;-82
2022/05/20 11:40:30;;;;;;;66.67;6.53;;;;;;;23.08;39.38;101515.23;1734231;81;21107;-79
2022/05/20 11:43:36;;;;;;;33.90;4.28;;;;;;;23.07;39.32;101502.48;1717813;82;21066;-81
2022/05/20 11:46:30;;;;;;;15.80;2.77;;;;;;;23.05;39.27;101504.17;1756859;81;21099;-79
2022/05/20 11:49:26;;;;;;;14.03;2.90;;;;;;;23.03;39.25;101502.87;1723122;80;21161;-79
2022/05/20 11:52:04;;;;;;;15.18;2.50;;;;;;;23.02;39.20;101495.67;1739872;79;21652;-79
2022/05/20 11:54:45;;;;;;;24.10;2.60;;;;;;;22.99;39.27;101487.98;1708982;81;21359;-80
2022/05/20 11:57:18;;;;;;;13.75;2.30;;;;;;;23.01;39.57;101485.13;1681009;82;21068;-79
2022/05/20 12:00:09;;;;;;;12.37;1.87;;;;;;;23.05;39.72;101476.42;1726628;82;21276;-78
2022/05/20 12:02:44;;;;;;;16.20;2.12;;;;;;;23.06;39.71;101475.30;1725066;80;21009;-77
2022/05/20 12:05:14;;;;;;;13.22;2.35;;;;;;;23.10;39.75;101474.08;1754792;79;21063;-78
2022/05/20 12:07:42;;;;;;;10.82;1.75;;;;;;;23.12;39.82;101469.05;1750067;80;22011;-80
2022/05/20 12:10:32;;;;;;;12.47;1.77;;;;;;;23.13;39.92;101461.77;1757752;80;21071;-79
2022/05/20 12:13:21;;;;;;;14.63;1.80;;;;;;;23.14;39.97;101461.20;1725658;83;22021;-80
2022/05/20 12:16:14;;;;;;;13.38;2.00;;;;;;;23.11;40.04;101457.12;1641170;83;21526;-78
2022/05/20 12:24:49;;;;;;;7.40;1.40;;;;;;;23.08;39.38;101438.91;1732566;81;21043;-80
2022/05/20 12:27:27;;;;;;;6.83;1.57;;;;;;;23.06;39.10;101435.05;1734987;81;23873;-80